sensor_id;sensor_type;location;lat;lon;timestamp;P1;durP1;ratioP1;P2;durP2;ratioP2
35891;SDS011;21993;42.672;23.296;2023-04-23T00:00:06;8.87;;;5.80;;
35891;SDS011;21993;42.672;23.296;2023-04-23T00:02:36;11.30;;;7.40;;
35891;SDS011;21993;42.672;23.296;2023-04-23T00:05:04;8.20;;;6.00;;
35891;SDS011;21993;42.672;23.296;2023-04-23T00:07:33;9.47;;;6.27;;
35891;SDS011;21993;42.672;23.296;2023-04-23T00:10:01;9.30;;;6.90;;
35891;SDS011;21993;42.672;23.296;2023-04-23T00:12:30;9.67;;;7.17;;
35891;SDS011;21993;42.672;23.296;2023-04-23T00:14:56;9.47;;;6.97;;
35891;SDS011;21993;42.672;23.296;2023-04-23T00:17:22;8.97;;;6.03;;
35891;SDS011;21993;42.672;23.296;2023-04-23T00:19:47;10.80;;;5.50;;
35891;SDS011;21993;42.672;23.296;2023-04-23T00:22:13;10.90;;;6.40;;
35891;SDS011;21993;42.672;23.296;2023-04-23T00:24:39;12.20;;;6.60;;
35891;SDS011;21993;42.672;23.296;2023-04-23T00:27:04;11.03;;;6.87;;
35891;SDS011;21993;42.672;23.296;2023-04-23T00:29:30;12.30;;;6.70;;
35891;SDS011;21993;42.672;23.296;2023-04-23T00:31:56;9.23;;;6.70;;
35891;SDS011;21993;42.672;23.296;2023-04-23T00:34:21;9.90;;;6.67;;
35891;SDS011;21993;42.672;23.296;2023-04-23T00:36:47;10.83;;;6.67;;
35891;SDS011;21993;42.672;23.296;2023-04-23T00:39:12;9.43;;;7.27;;
35891;SDS011;21993;42.672;23.296;2023-04-23T00:41:38;10.07;;;6.87;;
35891;SDS011;21993;42.672;23.296;2023-04-23T00:44:05;9.97;;;7.00;;
35891;SDS011;21993;42.672;23.296;2023-04-23T00:46:31;11.03;;;7.00;;
35891;SDS011;21993;42.672;23.296;2023-04-23T00:48:56;8.57;;;5.80;;
35891;SDS011;21993;42.672;23.296;2023-04-23T00:51:22;8.77;;;5.80;;
35891;SDS011;21993;42.672;23.296;2023-04-23T00:53:48;10.57;;;5.93;;
35891;SDS011;21993;42.672;23.296;2023-04-23T00:56:14;10.53;;;6.67;;
35891;SDS011;21993;42.672;23.296;2023-04-23T00:58:41;8.20;;;5.90;;
35891;SDS011;21993;42.672;23.296;2023-04-23T01:01:07;8.37;;;6.43;;
35891;SDS011;21993;42.672;23.296;2023-04-23T01:03:33;9.40;;;5.87;;
35891;SDS011;21993;42.672;23.296;2023-04-23T01:06:00;8.13;;;7.30;;
35891;SDS011;21993;42.672;23.296;2023-04-23T01:08:27;10.63;;;6.27;;
35891;SDS011;21993;42.672;23.296;2023-04-23T01:10:55;8.43;;;6.60;;
35891;SDS011;21993;42.672;23.296;2023-04-23T01:13:22;11.80;;;6.93;;
35891;SDS011;21993;42.672;23.296;2023-04-23T01:15:50;8.30;;;6.90;;
35891;SDS011;21993;42.672;23.296;2023-04-23T01:18:16;11.30;;;6.87;;
35891;SDS011;21993;42.672;23.296;2023-04-23T01:20:44;12.47;;;6.90;;
35891;SDS011;21993;42.672;23.296;2023-04-23T01:23:09;8.57;;;6.87;;
35891;SDS011;21993;42.672;23.296;2023-04-23T01:25:36;12.60;;;7.03;;
35891;SDS011;21993;42.672;23.296;2023-04-23T01:28:01;10.33;;;6.83;;
35891;SDS011;21993;42.672;23.296;2023-04-23T01:30:27;11.43;;;7.50;;
35891;SDS011;21993;42.672;23.296;2023-04-23T01:32:53;14.57;;;8.10;;
35891;SDS011;21993;42.672;23.296;2023-04-23T01:35:20;9.77;;;7.90;;
35891;SDS011;21993;42.672;23.296;2023-04-23T01:37:46;11.77;;;7.87;;
35891;SDS011;21993;42.672;23.296;2023-04-23T01:40:13;13.20;;;8.13;;
35891;SDS011;21993;42.672;23.296;2023-04-23T01:42:39;16.67;;;8.13;;
35891;SDS011;21993;42.672;23.296;2023-04-23T01:45:05;11.23;;;8.10;;
35891;SDS011;21993;42.672;23.296;2023-04-23T01:47:32;10.87;;;7.63;;
35891;SDS011;21993;42.672;23.296;2023-04-23T01:49:59;9.70;;;7.40;;
35891;SDS011;21993;42.672;23.296;2023-04-23T01:52:24;12.83;;;8.13;;
35891;SDS011;21993;42.672;23.296;2023-04-23T01:54:50;11.83;;;8.20;;
35891;SDS011;21993;42.672;23.296;2023-04-23T01:57:16;13.17;;;8.03;;
35891;SDS011;21993;42.672;23.296;2023-04-23T01:59:48;14.87;;;8.13;;
35891;SDS011;21993;42.672;23.296;2023-04-23T02:02:14;14.27;;;8.20;;
35891;SDS011;21993;42.672;23.296;2023-04-23T02:04:40;10.97;;;7.90;;
35891;SDS011;21993;42.672;23.296;2023-04-23T02:07:08;9.93;;;7.27;;
35891;SDS011;21993;42.672;23.296;2023-04-23T02:09:34;10.50;;;6.93;;
35891;SDS011;21993;42.672;23.296;2023-04-23T02:12:00;9.33;;;6.30;;
35891;SDS011;21993;42.672;23.296;2023-04-23T02:14:25;10.10;;;7.37;;
35891;SDS011;21993;42.672;23.296;2023-04-23T02:16:51;11.00;;;7.33;;
35891;SDS011;21993;42.672;23.296;2023-04-23T02:19:18;10.50;;;7.10;;
35891;SDS011;21993;42.672;23.296;2023-04-23T02:21:43;12.43;;;6.87;;
35891;SDS011;21993;42.672;23.296;2023-04-23T02:24:09;8.90;;;6.77;;
35891;SDS011;21993;42.672;23.296;2023-04-23T02:26:34;14.47;;;7.43;;
35891;SDS011;21993;42.672;23.296;2023-04-23T02:29:00;9.77;;;6.67;;
35891;SDS011;21993;42.672;23.296;2023-04-23T02:31:25;10.83;;;7.10;;
35891;SDS011;21993;42.672;23.296;2023-04-23T02:33:51;9.03;;;6.63;;
35891;SDS011;21993;42.672;23.296;2023-04-23T02:36:16;11.00;;;7.13;;
35891;SDS011;21993;42.672;23.296;2023-04-23T02:38:42;10.83;;;7.00;;
35891;SDS011;21993;42.672;23.296;2023-04-23T02:41:09;10.80;;;7.40;;
35891;SDS011;21993;42.672;23.296;2023-04-23T02:43:35;11.80;;;7.50;;
35891;SDS011;21993;42.672;23.296;2023-04-23T02:46:01;12.57;;;7.90;;
35891;SDS011;21993;42.672;23.296;2023-04-23T02:48:36;13.90;;;8.20;;
35891;SDS011;21993;42.672;23.296;2023-04-23T02:51:03;17.37;;;9.37;;
35891;SDS011;21993;42.672;23.296;2023-04-23T02:53:30;14.80;;;8.40;;
35891;SDS011;21993;42.672;23.296;2023-04-23T02:55:56;10.93;;;7.43;;
35891;SDS011;21993;42.672;23.296;2023-04-23T02:58:21;11.33;;;7.00;;
35891;SDS011;21993;42.672;23.296;2023-04-23T03:00:46;8.87;;;7.30;;
35891;SDS011;21993;42.672;23.296;2023-04-23T03:03:12;14.10;;;7.60;;
35891;SDS011;21993;42.672;23.296;2023-04-23T03:05:37;9.23;;;6.97;;
35891;SDS011;21993;42.672;23.296;2023-04-23T03:08:03;13.77;;;7.53;;
35891;SDS011;21993;42.672;23.296;2023-04-23T03:10:28;9.97;;;7.27;;
35891;SDS011;21993;42.672;23.296;2023-04-23T03:12:54;13.33;;;7.93;;
35891;SDS011;21993;42.672;23.296;2023-04-23T03:15:20;10.23;;;8.17;;
35891;SDS011;21993;42.672;23.296;2023-04-23T03:17:46;14.30;;;7.87;;
35891;SDS011;21993;42.672;23.296;2023-04-23T03:20:11;10.90;;;7.53;;
35891;SDS011;21993;42.672;23.296;2023-04-23T03:22:37;13.07;;;7.13;;
35891;SDS011;21993;42.672;23.296;2023-04-23T03:25:03;12.30;;;7.07;;
35891;SDS011;21993;42.672;23.296;2023-04-23T03:27:28;12.33;;;6.80;;
35891;SDS011;21993;42.672;23.296;2023-04-23T03:29:54;10.07;;;7.87;;
35891;SDS011;21993;42.672;23.296;2023-04-23T03:32:19;9.43;;;7.33;;
35891;SDS011;21993;42.672;23.296;2023-04-23T03:34:45;10.07;;;7.30;;
35891;SDS011;21993;42.672;23.296;2023-04-23T03:37:10;10.50;;;7.33;;
35891;SDS011;21993;42.672;23.296;2023-04-23T03:39:36;10.03;;;7.50;;
35891;SDS011;21993;42.672;23.296;2023-04-23T03:42:02;11.90;;;7.60;;
35891;SDS011;21993;42.672;23.296;2023-04-23T03:44:29;20.37;;;8.70;;
35891;SDS011;21993;42.672;23.296;2023-04-23T03:46:55;11.57;;;7.20;;
35891;SDS011;21993;42.672;23.296;2023-04-23T03:49:20;13.47;;;7.93;;
35891;SDS011;21993;42.672;23.296;2023-04-23T03:51:45;12.73;;;7.53;;
35891;SDS011;21993;42.672;23.296;2023-04-23T03:54:11;10.80;;;7.60;;
35891;SDS011;21993;42.672;23.296;2023-04-23T03:56:36;13.30;;;7.60;;
35891;SDS011;21993;42.672;23.296;2023-04-23T03:59:02;14.30;;;6.67;;
35891;SDS011;21993;42.672;23.296;2023-04-23T04:01:27;13.87;;;7.43;;
35891;SDS011;21993;42.672;23.296;2023-04-23T04:03:52;14.13;;;10.07;;
35891;SDS011;21993;42.672;23.296;2023-04-23T04:06:18;12.47;;;7.80;;
35891;SDS011;21993;42.672;23.296;2023-04-23T04:08:43;15.33;;;7.50;;
35891;SDS011;21993;42.672;23.296;2023-04-23T04:11:08;11.77;;;8.13;;
35891;SDS011;21993;42.672;23.296;2023-04-23T04:13:34;10.97;;;7.60;;
35891;SDS011;21993;42.672;23.296;2023-04-23T04:15:59;9.30;;;8.00;;
35891;SDS011;21993;42.672;23.296;2023-04-23T04:18:25;10.00;;;8.20;;
35891;SDS011;21993;42.672;23.296;2023-04-23T04:20:50;11.70;;;8.63;;
35891;SDS011;21993;42.672;23.296;2023-04-23T04:23:17;10.33;;;8.13;;
35891;SDS011;21993;42.672;23.296;2023-04-23T04:25:42;11.33;;;8.73;;
35891;SDS011;21993;42.672;23.296;2023-04-23T04:28:10;17.07;;;9.97;;
35891;SDS011;21993;42.672;23.296;2023-04-23T04:30:36;12.50;;;8.80;;
35891;SDS011;21993;42.672;23.296;2023-04-23T04:33:02;13.50;;;9.30;;
35891;SDS011;21993;42.672;23.296;2023-04-23T04:35:28;15.83;;;9.53;;
35891;SDS011;21993;42.672;23.296;2023-04-23T04:37:53;15.97;;;10.70;;
35891;SDS011;21993;42.672;23.296;2023-04-23T04:40:19;11.23;;;8.63;;
35891;SDS011;21993;42.672;23.296;2023-04-23T04:42:44;19.97;;;9.73;;
35891;SDS011;21993;42.672;23.296;2023-04-23T04:45:10;11.60;;;8.93;;
35891;SDS011;21993;42.672;23.296;2023-04-23T04:47:36;11.67;;;9.27;;
35891;SDS011;21993;42.672;23.296;2023-04-23T04:50:02;17.50;;;9.63;;
35891;SDS011;21993;42.672;23.296;2023-04-23T04:52:28;13.13;;;9.03;;
35891;SDS011;21993;42.672;23.296;2023-04-23T04:54:53;14.00;;;9.57;;
35891;SDS011;21993;42.672;23.296;2023-04-23T04:57:19;13.93;;;8.57;;
35891;SDS011;21993;42.672;23.296;2023-04-23T04:59:46;12.40;;;8.70;;
35891;SDS011;21993;42.672;23.296;2023-04-23T05:02:12;13.20;;;9.03;;
35891;SDS011;21993;42.672;23.296;2023-04-23T05:04:38;8.90;;;7.13;;
35891;SDS011;21993;42.672;23.296;2023-04-23T05:07:03;11.50;;;8.37;;
35891;SDS011;21993;42.672;23.296;2023-04-23T05:09:28;8.57;;;7.40;;
35891;SDS011;21993;42.672;23.296;2023-04-23T05:11:54;15.00;;;9.53;;
35891;SDS011;21993;42.672;23.296;2023-04-23T05:14:19;11.60;;;9.13;;
35891;SDS011;21993;42.672;23.296;2023-04-23T05:16:45;12.20;;;8.33;;
35891;SDS011;21993;42.672;23.296;2023-04-23T05:19:10;14.10;;;8.60;;
35891;SDS011;21993;42.672;23.296;2023-04-23T05:21:36;12.30;;;8.90;;
35891;SDS011;21993;42.672;23.296;2023-04-23T05:24:01;10.70;;;7.03;;
35891;SDS011;21993;42.672;23.296;2023-04-23T05:26:26;10.37;;;9.10;;
35891;SDS011;21993;42.672;23.296;2023-04-23T05:28:52;10.10;;;7.47;;
35891;SDS011;21993;42.672;23.296;2023-04-23T05:31:17;11.50;;;7.73;;
35891;SDS011;21993;42.672;23.296;2023-04-23T05:33:43;12.83;;;7.17;;
35891;SDS011;21993;42.672;23.296;2023-04-23T05:36:09;10.33;;;7.33;;
35891;SDS011;21993;42.672;23.296;2023-04-23T05:38:34;10.70;;;7.43;;
35891;SDS011;21993;42.672;23.296;2023-04-23T05:41:00;11.07;;;7.47;;
35891;SDS011;21993;42.672;23.296;2023-04-23T05:43:25;9.93;;;7.63;;
35891;SDS011;21993;42.672;23.296;2023-04-23T05:45:51;9.60;;;7.40;;
35891;SDS011;21993;42.672;23.296;2023-04-23T05:48:16;11.50;;;7.70;;
35891;SDS011;21993;42.672;23.296;2023-04-23T05:50:42;10.40;;;7.17;;
35891;SDS011;21993;42.672;23.296;2023-04-23T05:53:07;12.30;;;7.17;;
35891;SDS011;21993;42.672;23.296;2023-04-23T05:55:33;10.33;;;7.47;;
35891;SDS011;21993;42.672;23.296;2023-04-23T05:57:58;14.80;;;7.70;;
35891;SDS011;21993;42.672;23.296;2023-04-23T06:00:24;10.40;;;7.23;;
35891;SDS011;21993;42.672;23.296;2023-04-23T06:02:49;7.90;;;6.77;;
35891;SDS011;21993;42.672;23.296;2023-04-23T06:05:14;10.87;;;7.90;;
35891;SDS011;21993;42.672;23.296;2023-04-23T06:07:40;8.60;;;7.43;;
35891;SDS011;21993;42.672;23.296;2023-04-23T06:10:06;8.47;;;7.50;;
35891;SDS011;21993;42.672;23.296;2023-04-23T06:12:32;15.30;;;10.37;;
35891;SDS011;21993;42.672;23.296;2023-04-23T06:14:57;9.87;;;8.43;;
35891;SDS011;21993;42.672;23.296;2023-04-23T06:17:23;10.83;;;8.80;;
35891;SDS011;21993;42.672;23.296;2023-04-23T06:19:48;12.30;;;8.50;;
35891;SDS011;21993;42.672;23.296;2023-04-23T06:22:13;13.63;;;8.33;;
35891;SDS011;21993;42.672;23.296;2023-04-23T06:24:39;13.67;;;9.50;;
35891;SDS011;21993;42.672;23.296;2023-04-23T06:27:04;18.43;;;10.70;;
35891;SDS011;21993;42.672;23.296;2023-04-23T06:29:30;14.40;;;8.70;;
35891;SDS011;21993;42.672;23.296;2023-04-23T06:31:56;12.00;;;8.77;;
35891;SDS011;21993;42.672;23.296;2023-04-23T06:34:25;12.40;;;9.93;;
35891;SDS011;21993;42.672;23.296;2023-04-23T06:36:50;14.57;;;9.37;;
35891;SDS011;21993;42.672;23.296;2023-04-23T06:39:16;11.40;;;8.63;;
35891;SDS011;21993;42.672;23.296;2023-04-23T06:41:41;13.47;;;9.27;;
35891;SDS011;21993;42.672;23.296;2023-04-23T06:44:07;15.60;;;11.27;;
35891;SDS011;21993;42.672;23.296;2023-04-23T06:46:32;14.10;;;10.57;;
35891;SDS011;21993;42.672;23.296;2023-04-23T06:48:57;14.07;;;9.00;;
35891;SDS011;21993;42.672;23.296;2023-04-23T06:51:26;12.47;;;8.90;;
35891;SDS011;21993;42.672;23.296;2023-04-23T06:53:52;10.90;;;8.47;;
35891;SDS011;21993;42.672;23.296;2023-04-23T06:56:17;11.90;;;8.67;;
35891;SDS011;21993;42.672;23.296;2023-04-23T06:58:43;9.87;;;7.57;;
35891;SDS011;21993;42.672;23.296;2023-04-23T07:01:08;12.23;;;7.80;;
35891;SDS011;21993;42.672;23.296;2023-04-23T07:03:35;9.20;;;7.30;;
35891;SDS011;21993;42.672;23.296;2023-04-23T07:06:01;8.47;;;7.03;;
35891;SDS011;21993;42.672;23.296;2023-04-23T07:08:26;7.67;;;6.87;;
35891;SDS011;21993;42.672;23.296;2023-04-23T07:10:52;8.73;;;7.30;;
35891;SDS011;21993;42.672;23.296;2023-04-23T07:13:17;10.43;;;7.60;;
35891;SDS011;21993;42.672;23.296;2023-04-23T07:15:43;8.60;;;6.70;;
35891;SDS011;21993;42.672;23.296;2023-04-23T07:18:08;8.90;;;7.00;;
35891;SDS011;21993;42.672;23.296;2023-04-23T07:20:34;9.50;;;6.67;;
35891;SDS011;21993;42.672;23.296;2023-04-23T07:23:00;11.87;;;8.13;;
35891;SDS011;21993;42.672;23.296;2023-04-23T07:25:27;14.37;;;9.70;;
35891;SDS011;21993;42.672;23.296;2023-04-23T07:27:53;12.20;;;8.50;;
35891;SDS011;21993;42.672;23.296;2023-04-23T07:30:19;10.97;;;7.97;;
35891;SDS011;21993;42.672;23.296;2023-04-23T07:32:45;9.60;;;6.97;;
35891;SDS011;21993;42.672;23.296;2023-04-23T07:35:11;9.77;;;7.17;;
35891;SDS011;21993;42.672;23.296;2023-04-23T07:37:37;9.43;;;7.50;;
35891;SDS011;21993;42.672;23.296;2023-04-23T07:40:03;8.53;;;7.43;;
35891;SDS011;21993;42.672;23.296;2023-04-23T07:42:30;8.87;;;6.83;;
35891;SDS011;21993;42.672;23.296;2023-04-23T07:44:56;8.07;;;6.97;;
35891;SDS011;21993;42.672;23.296;2023-04-23T07:47:22;12.57;;;6.70;;
35891;SDS011;21993;42.672;23.296;2023-04-23T07:49:47;10.00;;;7.77;;
35891;SDS011;21993;42.672;23.296;2023-04-23T07:52:12;9.87;;;7.47;;
35891;SDS011;21993;42.672;23.296;2023-04-23T07:54:39;12.13;;;7.90;;
35891;SDS011;21993;42.672;23.296;2023-04-23T07:57:06;12.30;;;7.67;;
35891;SDS011;21993;42.672;23.296;2023-04-23T07:59:32;8.97;;;7.03;;
35891;SDS011;21993;42.672;23.296;2023-04-23T08:01:57;10.60;;;7.27;;
35891;SDS011;21993;42.672;23.296;2023-04-23T08:04:22;9.27;;;7.33;;
35891;SDS011;21993;42.672;23.296;2023-04-23T08:06:48;14.93;;;7.77;;
35891;SDS011;21993;42.672;23.296;2023-04-23T08:09:13;10.87;;;7.40;;
35891;SDS011;21993;42.672;23.296;2023-04-23T08:11:39;9.50;;;7.20;;
35891;SDS011;21993;42.672;23.296;2023-04-23T08:14:05;8.27;;;7.40;;
35891;SDS011;21993;42.672;23.296;2023-04-23T08:16:30;8.30;;;6.80;;
35891;SDS011;21993;42.672;23.296;2023-04-23T08:18:56;11.57;;;7.47;;
35891;SDS011;21993;42.672;23.296;2023-04-23T08:21:22;12.97;;;7.50;;
35891;SDS011;21993;42.672;23.296;2023-04-23T08:23:49;11.40;;;6.97;;
35891;SDS011;21993;42.672;23.296;2023-04-23T08:26:15;10.23;;;6.80;;
35891;SDS011;21993;42.672;23.296;2023-04-23T08:28:40;7.57;;;5.40;;
35891;SDS011;21993;42.672;23.296;2023-04-23T08:31:06;9.17;;;7.10;;
35891;SDS011;21993;42.672;23.296;2023-04-23T08:33:31;9.77;;;7.23;;
35891;SDS011;21993;42.672;23.296;2023-04-23T08:35:57;8.40;;;7.40;;
35891;SDS011;21993;42.672;23.296;2023-04-23T08:38:22;8.27;;;7.43;;
35891;SDS011;21993;42.672;23.296;2023-04-23T08:40:48;9.43;;;7.60;;
35891;SDS011;21993;42.672;23.296;2023-04-23T08:43:18;11.13;;;7.80;;
35891;SDS011;21993;42.672;23.296;2023-04-23T08:45:47;11.70;;;7.80;;
35891;SDS011;21993;42.672;23.296;2023-04-23T08:48:13;7.60;;;6.73;;
35891;SDS011;21993;42.672;23.296;2023-04-23T08:50:43;9.80;;;6.97;;
35891;SDS011;21993;42.672;23.296;2023-04-23T08:53:08;9.50;;;7.00;;
35891;SDS011;21993;42.672;23.296;2023-04-23T08:55:34;8.17;;;7.00;;
35891;SDS011;21993;42.672;23.296;2023-04-23T08:58:00;9.83;;;7.03;;
35891;SDS011;21993;42.672;23.296;2023-04-23T09:00:30;10.93;;;7.10;;
35891;SDS011;21993;42.672;23.296;2023-04-23T09:02:58;8.90;;;6.90;;
35891;SDS011;21993;42.672;23.296;2023-04-23T09:05:25;8.90;;;6.70;;
35891;SDS011;21993;42.672;23.296;2023-04-23T09:07:51;9.00;;;6.77;;
35891;SDS011;21993;42.672;23.296;2023-04-23T09:10:17;9.60;;;6.97;;
35891;SDS011;21993;42.672;23.296;2023-04-23T09:12:43;8.67;;;7.27;;
35891;SDS011;21993;42.672;23.296;2023-04-23T09:15:09;14.67;;;7.37;;
35891;SDS011;21993;42.672;23.296;2023-04-23T09:17:36;8.37;;;7.37;;
35891;SDS011;21993;42.672;23.296;2023-04-23T09:20:04;11.87;;;7.40;;
35891;SDS011;21993;42.672;23.296;2023-04-23T09:22:40;9.10;;;7.67;;
35891;SDS011;21993;42.672;23.296;2023-04-23T09:25:07;8.70;;;6.83;;
35891;SDS011;21993;42.672;23.296;2023-04-23T09:27:33;12.53;;;6.90;;
35891;SDS011;21993;42.672;23.296;2023-04-23T09:30:01;10.57;;;8.60;;
35891;SDS011;21993;42.672;23.296;2023-04-23T09:32:35;7.63;;;6.83;;
35891;SDS011;21993;42.672;23.296;2023-04-23T09:35:03;8.77;;;6.73;;
35891;SDS011;21993;42.672;23.296;2023-04-23T09:37:39;8.33;;;6.80;;
35891;SDS011;21993;42.672;23.296;2023-04-23T09:40:06;8.53;;;6.73;;
35891;SDS011;21993;42.672;23.296;2023-04-23T09:42:35;9.63;;;7.53;;
35891;SDS011;21993;42.672;23.296;2023-04-23T09:45:07;6.97;;;6.30;;
35891;SDS011;21993;42.672;23.296;2023-04-23T09:47:54;7.40;;;6.70;;
35891;SDS011;21993;42.672;23.296;2023-04-23T09:52:56;7.60;;;6.40;;
35891;SDS011;21993;42.672;23.296;2023-04-23T09:55:31;9.07;;;6.80;;
35891;SDS011;21993;42.672;23.296;2023-04-23T09:58:03;7.00;;;6.00;;
35891;SDS011;21993;42.672;23.296;2023-04-23T10:00:33;8.10;;;6.70;;
35891;SDS011;21993;42.672;23.296;2023-04-23T10:03:00;8.53;;;6.93;;
35891;SDS011;21993;42.672;23.296;2023-04-23T10:05:26;9.20;;;6.67;;
35891;SDS011;21993;42.672;23.296;2023-04-23T10:07:51;10.30;;;7.13;;
35891;SDS011;21993;42.672;23.296;2023-04-23T10:10:18;8.13;;;7.17;;
35891;SDS011;21993;42.672;23.296;2023-04-23T10:12:44;7.90;;;6.50;;
35891;SDS011;21993;42.672;23.296;2023-04-23T10:15:11;9.40;;;6.77;;
35891;SDS011;21993;42.672;23.296;2023-04-23T10:17:37;6.90;;;6.13;;
35891;SDS011;21993;42.672;23.296;2023-04-23T10:20:04;6.90;;;6.20;;
35891;SDS011;21993;42.672;23.296;2023-04-23T10:22:32;9.10;;;6.27;;
35891;SDS011;21993;42.672;23.296;2023-04-23T10:24:59;8.07;;;6.33;;
35891;SDS011;21993;42.672;23.296;2023-04-23T10:27:32;8.47;;;6.30;;
35891;SDS011;21993;42.672;23.296;2023-04-23T10:30:06;8.20;;;6.90;;
35891;SDS011;21993;42.672;23.296;2023-04-23T10:32:33;9.73;;;6.23;;
35891;SDS011;21993;42.672;23.296;2023-04-23T10:34:59;9.10;;;6.60;;
35891;SDS011;21993;42.672;23.296;2023-04-23T10:37:25;9.07;;;5.80;;
35891;SDS011;21993;42.672;23.296;2023-04-23T10:39:53;12.37;;;7.67;;
35891;SDS011;21993;42.672;23.296;2023-04-23T10:42:20;10.33;;;7.07;;
35891;SDS011;21993;42.672;23.296;2023-04-23T10:44:47;7.33;;;6.30;;
35891;SDS011;21993;42.672;23.296;2023-04-23T10:47:14;8.67;;;5.90;;
35891;SDS011;21993;42.672;23.296;2023-04-23T10:49:41;7.77;;;5.70;;
35891;SDS011;21993;42.672;23.296;2023-04-23T10:52:08;6.77;;;5.53;;
35891;SDS011;21993;42.672;23.296;2023-04-23T10:54:33;7.73;;;5.53;;
35891;SDS011;21993;42.672;23.296;2023-04-23T10:57:03;8.73;;;6.00;;
35891;SDS011;21993;42.672;23.296;2023-04-23T10:59:31;9.90;;;5.80;;
35891;SDS011;21993;42.672;23.296;2023-04-23T11:01:58;7.90;;;5.57;;
35891;SDS011;21993;42.672;23.296;2023-04-23T11:04:29;8.83;;;5.77;;
35891;SDS011;21993;42.672;23.296;2023-04-23T11:07:05;7.93;;;6.03;;
35891;SDS011;21993;42.672;23.296;2023-04-23T11:11:59;7.23;;;5.10;;
35891;SDS011;21993;42.672;23.296;2023-04-23T11:17:12;11.70;;;5.43;;
35891;SDS011;21993;42.672;23.296;2023-04-23T11:19:40;6.40;;;5.60;;
35891;SDS011;21993;42.672;23.296;2023-04-23T11:22:16;8.03;;;5.20;;
35891;SDS011;21993;42.672;23.296;2023-04-23T11:24:43;6.50;;;5.53;;
35891;SDS011;21993;42.672;23.296;2023-04-23T11:27:11;8.27;;;5.67;;
35891;SDS011;21993;42.672;23.296;2023-04-23T11:29:39;5.40;;;4.90;;
35891;SDS011;21993;42.672;23.296;2023-04-23T11:32:06;8.03;;;5.37;;
35891;SDS011;21993;42.672;23.296;2023-04-23T11:34:40;5.30;;;4.53;;
35891;SDS011;21993;42.672;23.296;2023-04-23T11:37:10;5.67;;;5.07;;
35891;SDS011;21993;42.672;23.296;2023-04-23T11:39:37;7.93;;;4.90;;
35891;SDS011;21993;42.672;23.296;2023-04-23T11:42:08;7.23;;;6.00;;
35891;SDS011;21993;42.672;23.296;2023-04-23T11:44:38;7.20;;;4.97;;
35891;SDS011;21993;42.672;23.296;2023-04-23T11:47:07;6.40;;;5.43;;
35891;SDS011;21993;42.672;23.296;2023-04-23T11:49:40;8.47;;;6.07;;
35891;SDS011;21993;42.672;23.296;2023-04-23T11:52:07;5.33;;;4.83;;
35891;SDS011;21993;42.672;23.296;2023-04-23T11:54:33;4.70;;;4.30;;
35891;SDS011;21993;42.672;23.296;2023-04-23T11:56:59;7.67;;;4.77;;
35891;SDS011;21993;42.672;23.296;2023-04-23T11:59:27;6.17;;;5.10;;
35891;SDS011;21993;42.672;23.296;2023-04-23T12:01:53;4.83;;;4.43;;
35891;SDS011;21993;42.672;23.296;2023-04-23T12:04:21;7.67;;;4.47;;
35891;SDS011;21993;42.672;23.296;2023-04-23T12:06:50;5.40;;;4.60;;
35891;SDS011;21993;42.672;23.296;2023-04-23T12:09:17;5.77;;;4.30;;
35891;SDS011;21993;42.672;23.296;2023-04-23T12:11:44;5.50;;;4.90;;
35891;SDS011;21993;42.672;23.296;2023-04-23T12:14:10;6.00;;;4.53;;
35891;SDS011;21993;42.672;23.296;2023-04-23T12:16:46;5.63;;;4.63;;
35891;SDS011;21993;42.672;23.296;2023-04-23T12:19:34;4.50;;;4.13;;
35891;SDS011;21993;42.672;23.296;2023-04-23T12:22:01;4.30;;;3.90;;
35891;SDS011;21993;42.672;23.296;2023-04-23T12:24:44;6.60;;;4.50;;
35891;SDS011;21993;42.672;23.296;2023-04-23T12:27:17;4.30;;;3.80;;
35891;SDS011;21993;42.672;23.296;2023-04-23T12:29:44;6.40;;;4.90;;
35891;SDS011;21993;42.672;23.296;2023-04-23T12:32:11;7.83;;;4.63;;
35891;SDS011;21993;42.672;23.296;2023-04-23T12:34:49;7.67;;;5.03;;
35891;SDS011;21993;42.672;23.296;2023-04-23T12:37:22;4.93;;;4.43;;
35891;SDS011;21993;42.672;23.296;2023-04-23T12:39:50;4.40;;;4.00;;
35891;SDS011;21993;42.672;23.296;2023-04-23T12:42:17;7.70;;;4.40;;
35891;SDS011;21993;42.672;23.296;2023-04-23T12:44:42;5.00;;;4.50;;
35891;SDS011;21993;42.672;23.296;2023-04-23T12:47:08;5.27;;;3.77;;
35891;SDS011;21993;42.672;23.296;2023-04-23T12:49:39;7.93;;;4.53;;
35891;SDS011;21993;42.672;23.296;2023-04-23T12:52:05;4.33;;;3.93;;
35891;SDS011;21993;42.672;23.296;2023-04-23T12:54:32;4.53;;;4.07;;
35891;SDS011;21993;42.672;23.296;2023-04-23T12:57:01;8.40;;;4.50;;
35891;SDS011;21993;42.672;23.296;2023-04-23T12:59:27;12.23;;;7.37;;
35891;SDS011;21993;42.672;23.296;2023-04-23T13:01:53;10.23;;;8.10;;
35891;SDS011;21993;42.672;23.296;2023-04-23T13:04:18;7.77;;;6.37;;
35891;SDS011;21993;42.672;23.296;2023-04-23T13:06:44;5.00;;;4.33;;
35891;SDS011;21993;42.672;23.296;2023-04-23T13:09:10;7.80;;;4.23;;
35891;SDS011;21993;42.672;23.296;2023-04-23T13:11:36;7.53;;;4.47;;
35891;SDS011;21993;42.672;23.296;2023-04-23T13:14:02;6.80;;;4.20;;
35891;SDS011;21993;42.672;23.296;2023-04-23T13:16:28;7.80;;;3.97;;
35891;SDS011;21993;42.672;23.296;2023-04-23T13:18:54;7.87;;;5.03;;
35891;SDS011;21993;42.672;23.296;2023-04-23T13:21:19;8.13;;;5.87;;
35891;SDS011;21993;42.672;23.296;2023-04-23T13:23:45;5.63;;;4.40;;
35891;SDS011;21993;42.672;23.296;2023-04-23T13:26:11;4.60;;;3.93;;
35891;SDS011;21993;42.672;23.296;2023-04-23T13:28:36;10.63;;;4.23;;
35891;SDS011;21993;42.672;23.296;2023-04-23T13:31:02;4.27;;;3.83;;
35891;SDS011;21993;42.672;23.296;2023-04-23T13:33:28;5.03;;;3.70;;
35891;SDS011;21993;42.672;23.296;2023-04-23T13:35:55;4.47;;;3.80;;
35891;SDS011;21993;42.672;23.296;2023-04-23T13:38:22;4.60;;;3.73;;
35891;SDS011;21993;42.672;23.296;2023-04-23T13:40:48;4.47;;;4.07;;
35891;SDS011;21993;42.672;23.296;2023-04-23T13:43:14;4.63;;;4.00;;
35891;SDS011;21993;42.672;23.296;2023-04-23T13:45:39;5.17;;;3.80;;
35891;SDS011;21993;42.672;23.296;2023-04-23T13:48:05;5.80;;;3.93;;
35891;SDS011;21993;42.672;23.296;2023-04-23T13:50:32;6.20;;;4.23;;
35891;SDS011;21993;42.672;23.296;2023-04-23T13:52:57;4.70;;;4.20;;
35891;SDS011;21993;42.672;23.296;2023-04-23T13:55:23;4.73;;;3.90;;
35891;SDS011;21993;42.672;23.296;2023-04-23T13:57:48;3.63;;;3.33;;
35891;SDS011;21993;42.672;23.296;2023-04-23T14:00:14;4.33;;;3.93;;
35891;SDS011;21993;42.672;23.296;2023-04-23T14:02:40;4.80;;;3.93;;
35891;SDS011;21993;42.672;23.296;2023-04-23T14:05:05;3.83;;;3.43;;
35891;SDS011;21993;42.672;23.296;2023-04-23T14:07:33;6.00;;;4.30;;
35891;SDS011;21993;42.672;23.296;2023-04-23T14:09:58;4.30;;;3.90;;
35891;SDS011;21993;42.672;23.296;2023-04-23T14:12:25;4.00;;;3.70;;
35891;SDS011;21993;42.672;23.296;2023-04-23T14:14:52;4.93;;;4.03;;
35891;SDS011;21993;42.672;23.296;2023-04-23T14:17:18;4.67;;;3.90;;
35891;SDS011;21993;42.672;23.296;2023-04-23T14:19:44;4.73;;;3.80;;
35891;SDS011;21993;42.672;23.296;2023-04-23T14:22:09;4.33;;;3.93;;
35891;SDS011;21993;42.672;23.296;2023-04-23T14:24:38;4.17;;;3.50;;
35891;SDS011;21993;42.672;23.296;2023-04-23T14:27:08;4.77;;;3.90;;
35891;SDS011;21993;42.672;23.296;2023-04-23T14:29:35;5.70;;;3.90;;
35891;SDS011;21993;42.672;23.296;2023-04-23T14:32:05;4.87;;;3.50;;